createdAt,value
2023-01-12T00:02:22.088Z,8.83
2023-01-12T00:04:49.993Z,8.80
2023-01-12T00:07:18.295Z,9.10
2023-01-12T00:09:45.913Z,9.17
2023-01-12T00:12:13.799Z,8.83
2023-01-12T00:14:41.369Z,9.63
2023-01-12T00:17:11.876Z,10.77
2023-01-12T00:19:40.235Z,11.03
2023-01-12T00:22:11.657Z,11.30
2023-01-12T00:24:45.437Z,11.47
2023-01-12T00:27:16.907Z,12.00
2023-01-12T00:29:46.599Z,12.20
2023-01-12T00:32:20.031Z,11.73
2023-01-12T00:34:47.751Z,9.67
2023-01-12T00:37:15.647Z,9.00
2023-01-12T00:39:53.107Z,8.30
2023-01-12T00:42:42.907Z,8.43
2023-01-12T00:45:31.396Z,8.83
2023-01-12T00:47:59.018Z,8.13
2023-01-12T00:50:26.592Z,7.50
2023-01-12T00:52:54.016Z,7.63
2023-01-12T00:55:21.574Z,7.73
2023-01-12T00:57:49.137Z,7.87
2023-01-12T01:00:17.715Z,7.20
2023-01-12T01:02:45.330Z,7.90
2023-01-12T01:05:13.027Z,7.50
2023-01-12T01:07:40.514Z,6.50
2023-01-12T01:10:09.017Z,8.37
2023-01-12T01:12:36.751Z,8.50
2023-01-12T01:15:04.696Z,8.70
2023-01-12T01:17:32.281Z,8.10
2023-01-12T01:19:59.787Z,8.70
2023-01-12T01:22:27.661Z,7.43
2023-01-12T01:24:55.137Z,6.10
2023-01-12T01:27:22.678Z,5.87
2023-01-12T01:29:50.152Z,6.73
2023-01-12T01:32:17.653Z,6.57
2023-01-12T01:34:46.481Z,6.40
2023-01-12T01:37:14.034Z,7.60
2023-01-12T01:39:41.494Z,7.90
2023-01-12T01:42:28.345Z,7.87
2023-01-12T01:44:59.393Z,7.00
2023-01-12T01:47:39.952Z,6.10
2023-01-12T01:50:18.893Z,6.33
2023-01-12T01:52:53.857Z,5.97
2023-01-12T01:55:37.056Z,6.23
2023-01-12T01:58:15.438Z,7.03
2023-01-12T02:00:44.420Z,5.53
2023-01-12T02:03:13.678Z,5.17
2023-01-12T02:05:46.168Z,5.53
2023-01-12T02:08:51.749Z,5.57
2023-01-12T02:11:39.233Z,4.80
2023-01-12T02:14:25.383Z,4.90
2023-01-12T02:17:31.365Z,4.80
2023-01-12T02:20:39.967Z,4.80
2023-01-12T02:23:54.545Z,5.30
2023-01-12T02:26:53.161Z,5.10
2023-01-12T02:29:38.577Z,5.57
2023-01-12T02:32:30.812Z,5.83
2023-01-12T02:35:22.386Z,4.93
2023-01-12T02:38:03.191Z,5.40
2023-01-12T02:40:59.371Z,6.20
2023-01-12T02:43:31.690Z,5.83
2023-01-12T02:46:23.416Z,5.93
2023-01-12T02:48:56.330Z,5.33
2023-01-12T02:51:51.267Z,4.77
2023-01-12T02:54:21.289Z,5.20
2023-01-12T02:56:53.906Z,5.03
2023-01-12T02:59:27.172Z,6.27
2023-01-12T03:02:04.735Z,6.33
2023-01-12T03:04:33.671Z,5.50
2023-01-12T03:07:01.030Z,4.60
2023-01-12T03:09:37.925Z,5.13
2023-01-12T03:12:19.653Z,5.77
2023-01-12T03:14:51.854Z,6.20
2023-01-12T03:17:40.341Z,5.73
2023-01-12T03:20:24.429Z,5.83
2023-01-12T03:23:00.896Z,7.40
2023-01-12T03:25:32.873Z,6.97
2023-01-12T03:28:04.948Z,5.43
2023-01-12T03:30:56.838Z,4.87
2023-01-12T03:33:25.993Z,5.40
2023-01-12T03:36:22.111Z,5.20
2023-01-12T03:39:32.784Z,4.60
2023-01-12T03:42:29.040Z,4.47
2023-01-12T03:45:39.575Z,4.53
2023-01-12T03:48:47.024Z,5.33
2023-01-12T03:51:24.072Z,6.63
2023-01-12T03:53:53.312Z,7.33
2023-01-12T03:56:25.325Z,6.00
2023-01-12T03:58:53.507Z,5.47
2023-01-12T04:01:21.221Z,5.90
2023-01-12T04:03:48.719Z,5.40
2023-01-12T04:06:16.676Z,4.90
2023-01-12T04:08:44.101Z,6.17
2023-01-12T04:11:30.358Z,6.83
2023-01-12T04:13:57.836Z,6.73
2023-01-12T04:16:25.482Z,6.50
2023-01-12T04:18:52.969Z,6.27
2023-01-12T04:21:39.282Z,5.93
2023-01-12T04:24:06.999Z,7.17
2023-01-12T04:26:34.428Z,8.73
2023-01-12T04:29:02.406Z,8.83
2023-01-12T04:31:29.929Z,9.37
2023-01-12T04:33:57.476Z,9.03
2023-01-12T04:36:25.015Z,8.80
2023-01-12T04:38:52.434Z,7.40
2023-01-12T04:41:19.881Z,8.87
2023-01-12T04:43:47.727Z,8.00
2023-01-12T04:46:15.931Z,8.10
2023-01-12T04:48:45.589Z,8.50
2023-01-12T04:51:13.734Z,8.30
2023-01-12T04:53:41.248Z,10.93
2023-01-12T04:56:09.742Z,10.17
2023-01-12T04:58:37.532Z,8.93
2023-01-12T05:01:19.935Z,6.97
2023-01-12T05:03:47.457Z,6.40
2023-01-12T05:06:14.977Z,6.53
2023-01-12T05:09:01.031Z,7.97
2023-01-12T05:11:29.924Z,8.67
2023-01-12T05:13:58.212Z,7.97
2023-01-12T05:16:26.738Z,7.37
2023-01-12T05:18:54.492Z,7.13
2023-01-12T05:21:23.257Z,7.90
2023-01-12T05:23:54.637Z,10.23
2023-01-12T05:26:22.128Z,11.30
2023-01-12T05:28:50.635Z,10.97
2023-01-12T05:31:19.674Z,11.33
2023-01-12T05:33:48.890Z,11.27
2023-01-12T05:36:18.209Z,8.67
2023-01-12T05:38:45.663Z,9.13
2023-01-12T05:41:14.865Z,9.90
2023-01-12T05:43:52.629Z,11.17
2023-01-12T05:46:27.910Z,10.47
2023-01-12T05:48:57.570Z,9.90
2023-01-12T05:51:27.727Z,12.07
2023-01-12T05:53:55.656Z,13.53
2023-01-12T05:56:28.176Z,12.20
2023-01-12T05:58:58.815Z,12.03
2023-01-12T06:01:28.057Z,10.60
2023-01-12T06:04:01.431Z,9.23
2023-01-12T06:06:31.491Z,8.27
2023-01-12T06:09:00.951Z,19.97
2023-01-12T06:11:47.297Z,11.77
2023-01-12T06:14:17.929Z,9.30
2023-01-12T06:16:45.469Z,9.07
2023-01-12T06:19:13.435Z,10.17
2023-01-12T06:21:41.399Z,9.87
2023-01-12T06:24:09.559Z,15.13
2023-01-12T06:26:37.027Z,17.03
2023-01-12T06:29:07.039Z,19.40
2023-01-12T06:31:34.709Z,20.57
2023-01-12T06:34:02.389Z,23.87
2023-01-12T06:36:29.880Z,22.80
2023-01-12T06:38:57.356Z,19.73
2023-01-12T06:41:43.431Z,14.73
2023-01-12T06:44:10.888Z,12.23
2023-01-12T06:46:38.435Z,18.27
2023-01-12T06:49:06.193Z,16.47
2023-01-12T06:51:33.665Z,14.57
2023-01-12T06:54:01.529Z,14.00
2023-01-12T06:56:29.383Z,16.20
2023-01-12T06:58:56.911Z,15.80
2023-01-12T07:01:27.050Z,16.83
2023-01-12T07:03:54.916Z,15.73
2023-01-12T07:06:22.521Z,14.60
2023-01-12T07:08:50.035Z,19.80
2023-01-12T07:11:17.495Z,15.87
2023-01-12T07:13:45.010Z,15.67
2023-01-12T07:16:13.667Z,21.93
2023-01-12T07:18:41.200Z,21.57
2023-01-12T07:21:13.553Z,28.90
2023-01-12T07:23:44.096Z,33.43
2023-01-12T07:26:12.270Z,43.87
2023-01-12T07:28:40.305Z,63.80
2023-01-12T07:31:09.311Z,60.37
2023-01-12T07:33:38.528Z,41.17
2023-01-12T07:36:06.930Z,24.77
2023-01-12T07:38:34.826Z,27.93
2023-01-12T07:41:03.458Z,25.20
2023-01-12T07:43:33.726Z,23.90
2023-01-12T07:46:02.163Z,17.90
2023-01-12T07:48:30.819Z,15.00
2023-01-12T07:51:00.036Z,14.77
2023-01-12T07:53:27.557Z,11.50
2023-01-12T07:55:55.046Z,10.80
2023-01-12T07:58:22.519Z,9.93
2023-01-12T08:00:50.049Z,14.07
2023-01-12T08:03:17.585Z,7.33
2023-01-12T08:05:45.097Z,18.13
2023-01-12T08:08:12.585Z,24.37
2023-01-12T08:10:40.986Z,7.20
2023-01-12T08:13:08.500Z,27.63
2023-01-12T08:15:49.480Z,42.47
2023-01-12T08:18:23.993Z,37.37
2023-01-12T08:20:54.349Z,12.53
2023-01-12T08:23:32.113Z,12.33
2023-01-12T08:26:05.113Z,11.30
2023-01-12T08:28:38.593Z,11.43
2023-01-12T08:31:11.125Z,8.67
2023-01-12T08:33:39.475Z,10.80
2023-01-12T08:38:44.729Z,9.27
2023-01-12T08:41:31.002Z,8.27
2023-01-12T08:44:02.220Z,7.83
2023-01-12T08:46:48.617Z,7.20
2023-01-12T08:49:19.370Z,7.93
2023-01-12T08:51:47.832Z,13.50
2023-01-12T08:54:19.008Z,13.90
2023-01-12T08:56:47.097Z,11.13
2023-01-12T08:59:14.681Z,13.13
2023-01-12T09:01:42.884Z,10.67
2023-01-12T09:04:10.466Z,10.20
2023-01-12T09:06:42.703Z,15.00
2023-01-12T09:09:14.772Z,14.03
2023-01-12T09:11:44.231Z,9.33
2023-01-12T09:14:15.509Z,7.17
2023-01-12T09:16:43.973Z,7.00
2023-01-12T09:19:11.781Z,12.03
2023-01-12T09:21:41.469Z,9.37
2023-01-12T09:24:09.599Z,9.50
2023-01-12T09:26:41.148Z,9.07
2023-01-12T09:29:10.907Z,8.40
2023-01-12T09:31:41.292Z,11.13
2023-01-12T09:34:08.951Z,15.57
2023-01-12T09:36:38.913Z,9.60
2023-01-12T09:39:12.825Z,7.93
2023-01-12T09:42:08.835Z,8.00
2023-01-12T09:45:04.120Z,8.90
2023-01-12T09:47:41.700Z,7.93
2023-01-12T09:50:17.592Z,9.53
2023-01-12T09:52:55.903Z,7.80
2023-01-12T09:55:26.631Z,5.93
2023-01-12T09:58:14.993Z,7.93
2023-01-12T10:00:44.214Z,8.37
2023-01-12T10:03:19.664Z,14.67
2023-01-12T10:06:00.787Z,11.63
2023-01-12T10:08:53.852Z,7.50
2023-01-12T10:12:09.007Z,7.77
2023-01-12T10:15:00.053Z,8.60
2023-01-12T10:17:51.578Z,8.27
2023-01-12T10:20:45.153Z,9.00
2023-01-12T10:23:16.380Z,13.10
2023-01-12T10:25:51.774Z,7.93
2023-01-12T10:28:33.248Z,8.20
2023-01-12T10:31:03.676Z,7.63
2023-01-12T10:33:34.676Z,6.57
2023-01-12T10:36:21.454Z,6.93
2023-01-12T10:39:04.567Z,7.80
2023-01-12T10:41:38.073Z,8.63
2023-01-12T10:44:23.425Z,6.97
2023-01-12T10:47:10.844Z,8.67
2023-01-12T10:49:38.393Z,7.70
2023-01-12T10:52:35.656Z,14.87
2023-01-12T10:55:03.360Z,8.07
2023-01-12T10:57:31.006Z,9.10
2023-01-12T11:00:02.785Z,8.90
2023-01-12T11:02:45.628Z,8.67
2023-01-12T11:05:38.720Z,8.50
2023-01-12T11:08:33.914Z,8.17
2023-01-12T11:11:24.367Z,7.23
2023-01-12T11:13:58.849Z,7.67
2023-01-12T11:16:33.891Z,6.30
2023-01-12T11:19:28.407Z,7.60
2023-01-12T11:22:08.164Z,7.50
2023-01-12T11:24:45.327Z,6.03
2023-01-12T11:27:28.851Z,6.23
2023-01-12T11:30:05.078Z,6.57
2023-01-12T11:32:50.107Z,19.40
2023-01-12T11:35:37.129Z,8.03
2023-01-12T11:38:21.184Z,7.47
2023-01-12T11:40:49.476Z,6.53
2023-01-12T11:43:51.090Z,12.23
2023-01-12T11:46:42.517Z,13.27
2023-01-12T11:49:27.508Z,7.43
2023-01-12T11:51:57.696Z,8.47
2023-01-12T11:54:31.190Z,4.90
2023-01-12T11:57:26.447Z,6.57
2023-01-12T11:59:53.839Z,7.07
2023-01-12T12:02:55.215Z,7.27
2023-01-12T12:06:03.872Z,4.20
2023-01-12T12:08:48.713Z,6.37
2023-01-12T12:11:54.983Z,5.90
2023-01-12T12:15:21.551Z,6.20
2023-01-12T12:18:09.742Z,6.37
2023-01-12T12:20:45.916Z,6.33
2023-01-12T12:23:30.249Z,7.23
2023-01-12T12:26:21.192Z,11.03
2023-01-12T12:29:33.906Z,10.20
2023-01-12T12:32:31.810Z,7.43
2023-01-12T12:35:30.065Z,12.47
2023-01-12T12:38:15.475Z,10.50
2023-01-12T12:41:55.093Z,8.10
2023-01-12T12:44:55.412Z,7.33
2023-01-12T12:47:52.843Z,8.33
2023-01-12T12:50:56.524Z,9.00
2023-01-12T12:53:37.042Z,7.50
2023-01-12T12:56:13.182Z,7.03
2023-01-12T12:58:52.700Z,7.20
2023-01-12T13:01:27.301Z,8.13
2023-01-12T13:04:03.308Z,7.40
2023-01-12T13:06:39.036Z,8.37
2023-01-12T13:09:12.480Z,8.37
2023-01-12T13:12:00.231Z,8.77
2023-01-12T13:14:35.925Z,10.63
2023-01-12T13:17:21.704Z,10.03
2023-01-12T13:20:16.786Z,8.53
2023-01-12T13:22:50.097Z,7.20
2023-01-12T13:25:29.592Z,7.23
2023-01-12T13:28:07.842Z,10.17
2023-01-12T13:30:40.216Z,16.30
2023-01-12T13:33:27.931Z,13.47
2023-01-12T13:36:08.140Z,12.17
2023-01-12T13:39:04.011Z,11.50
2023-01-12T13:41:53.729Z,10.63
2023-01-12T13:44:35.136Z,10.80
2023-01-12T13:47:24.962Z,11.60
2023-01-12T13:49:57.940Z,11.30
2023-01-12T13:52:35.974Z,11.53
2023-01-12T13:55:20.681Z,11.10
2023-01-12T13:58:02.547Z,11.53
2023-01-12T14:00:33.027Z,10.53
2023-01-12T14:03:03.104Z,11.20
2023-01-12T14:06:04.438Z,10.80
2023-01-12T14:08:55.751Z,11.20
2023-01-12T14:12:04.351Z,10.87
2023-01-12T14:15:15.030Z,13.23
2023-01-12T14:17:49.829Z,11.53
2023-01-12T14:20:26.667Z,13.07
2023-01-12T14:23:35.254Z,26.67
2023-01-12T14:26:13.500Z,18.83
2023-01-12T14:28:48.532Z,13.57
2023-01-12T14:31:23.183Z,11.47
2023-01-12T14:33:56.925Z,10.67
2023-01-12T14:36:42.801Z,10.87
2023-01-12T14:39:21.826Z,13.60
2023-01-12T14:42:13.246Z,10.20
2023-01-12T14:45:14.630Z,8.70
2023-01-12T14:47:43.512Z,7.87
2023-01-12T14:50:17.576Z,10.80
2023-01-12T14:52:47.007Z,18.47
2023-01-12T14:55:22.703Z,33.70
2023-01-12T14:57:57.541Z,18.37
2023-01-12T15:00:29.256Z,11.43
2023-01-12T15:03:01.037Z,10.10
2023-01-12T15:05:31.745Z,8.67
2023-01-12T15:08:04.831Z,27.70
2023-01-12T15:10:35.416Z,22.20
2023-01-12T15:13:29.979Z,19.63
2023-01-12T15:16:16.894Z,24.80
2023-01-12T15:19:03.234Z,9.93
2023-01-12T15:21:51.799Z,8.53
2023-01-12T15:24:45.486Z,8.70
2023-01-12T15:27:16.916Z,9.60
2023-01-12T15:30:04.636Z,9.00
2023-01-12T15:32:48.209Z,11.27
2023-01-12T15:35:26.603Z,11.47
2023-01-12T15:37:58.703Z,11.20
2023-01-12T15:40:28.006Z,8.27
2023-01-12T15:42:55.521Z,8.50
2023-01-12T15:45:39.766Z,7.63
2023-01-12T15:48:09.235Z,6.50
2023-01-12T15:50:42.829Z,24.27
2023-01-12T15:53:22.119Z,10.50
2023-01-12T15:55:50.287Z,7.50
2023-01-12T15:58:19.608Z,6.03
2023-01-12T16:00:47.396Z,5.30
2023-01-12T16:03:38.238Z,5.10
2023-01-12T16:06:04.661Z,4.77
2023-01-12T16:08:34.535Z,5.23
2023-01-12T16:11:13.484Z,5.47
2023-01-12T16:13:42.144Z,4.83
2023-01-12T16:16:16.631Z,4.87
2023-01-12T16:18:46.475Z,4.93
2023-01-12T16:21:19.631Z,5.30
2023-01-12T16:23:47.597Z,5.00
2023-01-12T16:26:16.451Z,26.10
2023-01-12T16:28:46.070Z,19.77
2023-01-12T16:31:15.662Z,19.37
2023-01-12T16:33:48.226Z,9.53
2023-01-12T16:36:19.189Z,6.00
2023-01-12T16:38:49.829Z,6.13
2023-01-12T16:41:44.067Z,6.20
2023-01-12T16:44:12.200Z,6.67
2023-01-12T16:46:39.748Z,6.80
2023-01-12T16:49:08.323Z,6.80
2023-01-12T16:51:35.866Z,6.80
2023-01-12T16:54:07.045Z,6.70
2023-01-12T16:56:35.609Z,19.20
2023-01-12T16:59:05.469Z,15.80
2023-01-12T17:01:35.584Z,14.13
2023-01-12T17:04:03.355Z,12.37
2023-01-12T17:06:31.554Z,14.27
2023-01-12T17:09:03.270Z,10.67
2023-01-12T17:11:35.094Z,9.27
2023-01-12T17:14:22.880Z,10.10
2023-01-12T17:16:57.671Z,15.33
2023-01-12T17:19:28.244Z,17.93
2023-01-12T17:21:58.352Z,20.70
2023-01-12T17:24:30.483Z,20.33
2023-01-12T17:26:58.723Z,15.03
2023-01-12T17:29:28.186Z,11.40
2023-01-12T17:32:06.009Z,10.87
2023-01-12T17:34:43.283Z,10.80
2023-01-12T17:37:12.753Z,9.43
2023-01-12T17:39:45.083Z,10.20
2023-01-12T17:42:35.290Z,22.20
2023-01-12T17:45:05.838Z,78.33
2023-01-12T17:47:38.781Z,94.70
2023-01-12T17:50:11.107Z,129.73
2023-01-12T17:52:38.690Z,55.10
2023-01-12T17:55:06.912Z,46.70
2023-01-12T17:57:36.491Z,25.80
2023-01-12T18:00:16.268Z,15.93
2023-01-12T18:02:45.656Z,11.17
2023-01-12T18:05:13.391Z,12.03
2023-01-12T18:07:42.130Z,17.60
2023-01-12T18:10:11.581Z,22.73
2023-01-12T18:12:40.426Z,19.80
2023-01-12T18:15:10.320Z,9.83
2023-01-12T18:17:39.515Z,9.70
2023-01-12T18:20:09.387Z,27.53
2023-01-12T18:22:37.163Z,18.17
2023-01-12T18:25:06.758Z,13.80
2023-01-12T18:27:34.305Z,17.77
2023-01-12T18:30:02.306Z,23.27
2023-01-12T18:32:30.623Z,60.53
2023-01-12T18:34:59.419Z,96.33
2023-01-12T18:37:28.430Z,45.10
2023-01-12T18:40:01.439Z,16.97
2023-01-12T18:42:49.068Z,10.90
2023-01-12T18:45:21.957Z,16.63
2023-01-12T18:48:09.437Z,9.43
2023-01-12T18:50:57.000Z,9.73
2023-01-12T18:53:33.578Z,9.20
2023-01-12T18:56:09.450Z,9.70
2023-01-12T18:58:44.856Z,8.37
2023-01-12T19:01:32.261Z,8.53
2023-01-12T19:04:03.294Z,8.10
2023-01-12T19:06:47.215Z,7.70
2023-01-12T19:09:34.954Z,7.87
2023-01-12T19:12:12.150Z,12.50
2023-01-12T19:15:00.325Z,26.30
2023-01-12T19:17:35.994Z,82.63
2023-01-12T19:20:10.315Z,57.53
2023-01-12T19:23:00.026Z,82.30
2023-01-12T19:25:50.470Z,59.07
2023-01-12T19:28:36.673Z,33.03
2023-01-12T19:31:16.545Z,18.57
2023-01-12T19:33:46.124Z,19.47
2023-01-12T19:36:20.049Z,20.60
2023-01-12T19:38:52.974Z,21.13
2023-01-12T19:41:41.594Z,23.80
2023-01-12T19:44:09.524Z,126.53
2023-01-12T19:46:38.090Z,39.67
2023-01-12T19:49:08.770Z,16.13
2023-01-12T19:51:43.311Z,17.17
2023-01-12T19:54:13.177Z,17.10
2023-01-12T19:56:59.188Z,41.23
2023-01-12T19:59:28.877Z,54.87
2023-01-12T20:02:21.459Z,32.10
2023-01-12T20:04:51.134Z,59.17
2023-01-12T20:07:21.392Z,98.23
2023-01-12T20:09:51.943Z,35.73
2023-01-12T20:12:22.330Z,21.73
2023-01-12T20:14:55.245Z,16.23
2023-01-12T20:17:28.222Z,18.07
2023-01-12T20:20:03.515Z,15.30
2023-01-12T20:22:37.072Z,14.90
2023-01-12T20:25:07.577Z,20.17
2023-01-12T20:27:37.463Z,11.17
2023-01-12T20:30:11.475Z,13.77
2023-01-12T20:32:46.761Z,10.13
2023-01-12T20:35:23.124Z,9.40
2023-01-12T20:37:55.330Z,15.07
2023-01-12T20:40:23.374Z,8.57
2023-01-12T20:42:51.534Z,8.70
2023-01-12T20:45:19.299Z,7.87
2023-01-12T20:47:47.811Z,8.40
2023-01-12T20:50:16.917Z,9.63
2023-01-12T20:52:48.273Z,9.80
2023-01-12T20:55:15.977Z,12.43
2023-01-12T20:57:43.887Z,10.77
2023-01-12T21:00:14.277Z,9.77
2023-01-12T21:02:42.832Z,11.20
2023-01-12T21:05:14.730Z,11.90
2023-01-12T21:07:44.789Z,14.63
2023-01-12T21:10:14.108Z,8.97
2023-01-12T21:12:44.205Z,9.93
2023-01-12T21:15:13.711Z,12.50
2023-01-12T21:17:42.918Z,10.20
2023-01-12T21:20:12.401Z,21.60
2023-01-12T21:22:40.062Z,20.23
2023-01-12T21:25:11.129Z,46.57
2023-01-12T21:27:39.526Z,22.33
2023-01-12T21:30:11.252Z,28.00
2023-01-12T21:32:39.032Z,10.67
2023-01-12T21:35:10.658Z,23.00
2023-01-12T21:37:38.249Z,13.43
2023-01-12T21:40:07.000Z,18.33
2023-01-12T21:42:53.141Z,21.07
2023-01-12T21:45:23.732Z,13.03
2023-01-12T21:47:52.204Z,17.60
2023-01-12T21:50:19.684Z,17.53
2023-01-12T21:52:48.221Z,9.70
2023-01-12T21:55:16.005Z,7.00
2023-01-12T21:57:46.547Z,7.00
2023-01-12T22:00:14.968Z,7.07
2023-01-12T22:02:43.144Z,7.30
2023-01-12T22:05:13.703Z,7.23
2023-01-12T22:07:41.878Z,5.90
2023-01-12T22:10:22.090Z,6.03
2023-01-12T22:12:55.711Z,5.03
2023-01-12T22:15:25.007Z,4.77
2023-01-12T22:17:54.688Z,4.63
2023-01-12T22:20:27.800Z,4.37
2023-01-12T22:22:55.765Z,4.70
2023-01-12T22:25:23.543Z,4.70
2023-01-12T22:27:51.145Z,5.70
2023-01-12T22:30:24.126Z,5.27
2023-01-12T22:32:56.293Z,5.40
2023-01-12T22:35:26.208Z,5.23
2023-01-12T22:37:55.853Z,5.20
2023-01-12T22:40:29.860Z,5.53
2023-01-12T22:43:16.061Z,5.17
2023-01-12T22:45:45.767Z,5.20
2023-01-12T22:48:13.263Z,5.40
2023-01-12T22:50:40.826Z,5.00
2023-01-12T22:53:08.384Z,5.60
2023-01-12T22:55:42.021Z,6.00
2023-01-12T22:58:09.627Z,6.10
2023-01-12T23:00:39.821Z,6.13
2023-01-12T23:03:12.040Z,6.80
2023-01-12T23:05:56.247Z,6.37
2023-01-12T23:08:25.370Z,5.17
2023-01-12T23:11:01.187Z,6.00
2023-01-12T23:13:28.849Z,6.37
2023-01-12T23:15:58.139Z,6.13
2023-01-12T23:18:29.482Z,6.43
2023-01-12T23:21:11.198Z,6.73
2023-01-12T23:23:46.635Z,6.63
2023-01-12T23:26:18.450Z,7.13
2023-01-12T23:28:50.218Z,8.00
2023-01-12T23:31:21.706Z,6.80
2023-01-12T23:33:50.541Z,7.03
2023-01-12T23:36:21.902Z,6.30
2023-01-12T23:39:01.071Z,7.03
2023-01-12T23:41:32.345Z,7.00
2023-01-12T23:44:02.696Z,6.20
2023-01-12T23:46:33.904Z,6.00
2023-01-12T23:49:01.940Z,7.20
2023-01-12T23:51:31.220Z,6.27
2023-01-12T23:54:03.068Z,7.90
2023-01-12T23:56:32.918Z,7.87
2023-01-12T23:59:00.739Z,8.83
